Time;durP1;ratioP1;P1;durP2;ratioP2;P2;SDS_P1;SDS_P2;PMS_P1;PMS_P2;Temp;Humidity;BMP_temperature;BMP_pressure;BME280_temperature;BME280_humidity;BME280_pressure;Samples;Min_cycle;Max_cycle;Signal;HPM_P1;HPM_P2
2023/10/23 00:02:00;;;;;;;3.00;2.80;;;7.50;99.90;;;;;;5078867;27;20683;-51
2023/10/23 00:04:27;;;;;;;2.80;2.60;;;7.50;99.90;;;;;;5107333;27;20209;-44
2023/10/23 00:06:53;;;;;;;5.47;3.23;;;7.40;99.90;;;;;;5089219;28;20197;-51
2023/10/23 00:09:20;;;;;;;4.37;2.87;;;7.30;99.90;;;;;;5101828;27;20266;-45
2023/10/23 00:11:47;;;;;;;3.33;3.00;;;7.30;99.90;;;;;;5100887;27;20221;-52
2023/10/23 00:14:15;;;;;;;2.60;2.40;;;7.30;99.90;;;;;;5098950;28;20257;-49
2023/10/23 00:16:42;;;;;;;3.13;2.93;;;7.20;99.90;;;;;;5108730;28;20184;-51
2023/10/23 00:19:09;;;;;;;3.73;2.80;;;7.20;99.90;;;;;;5073011;28;20215;-44
2023/10/23 00:21:36;;;;;;;6.00;2.70;;;7.20;99.90;;;;;;5102883;28;20213;-49
2023/10/23 00:24:02;;;;;;;4.43;2.67;;;7.10;99.90;;;;;;5097108;28;20182;-44
2023/10/23 00:26:29;;;;;;;2.93;2.73;;;7.10;99.90;;;;;;5096831;28;20216;-43
2023/10/23 00:28:57;;;;;;;3.03;2.83;;;7.20;99.90;;;;;;5098829;28;20197;-49
2023/10/23 00:31:25;;;;;;;2.80;2.60;;;7.10;99.90;;;;;;5102147;28;20271;-43
2023/10/23 00:33:51;;;;;;;5.67;2.77;;;7.00;99.90;;;;;;5077849;28;20268;-50
2023/10/23 00:36:19;;;;;;;3.03;2.80;;;7.00;99.90;;;;;;5107567;27;20685;-48
2023/10/23 00:38:46;;;;;;;2.83;2.50;;;7.00;99.90;;;;;;5098624;28;20669;-52
2023/10/23 00:41:12;;;;;;;5.07;2.50;;;7.00;99.90;;;;;;5092880;27;20217;-46
2023/10/23 00:43:39;;;;;;;5.10;3.40;;;7.00;99.90;;;;;;5106499;27;20246;-49
2023/10/23 00:46:11;;;;;;;3.10;2.87;;;6.90;99.90;;;;;;5101957;28;20190;-43
2023/10/23 00:48:39;;;;;;;3.43;2.70;;;7.00;99.90;;;;;;5083598;27;20277;-47
2023/10/23 00:51:07;;;;;;;3.70;3.03;;;7.00;99.90;;;;;;5105561;27;20270;-46
2023/10/23 00:53:37;;;;;;;3.23;2.73;;;6.90;99.90;;;;;;5101362;28;20569;-44
2023/10/23 00:56:06;;;;;;;4.90;2.80;;;6.90;99.90;;;;;;5100838;28;20178;-48
2023/10/23 00:58:33;;;;;;;3.70;3.40;;;7.00;99.90;;;;;;5095729;28;20220;-43
2023/10/23 01:01:03;;;;;;;4.07;3.57;;;7.00;99.90;;;;;;5109949;27;20842;-47
2023/10/23 01:03:30;;;;;;;4.00;3.50;;;7.00;99.90;;;;;;5110111;27;20196;-43
2023/10/23 01:05:59;;;;;;;5.17;3.17;;;7.00;99.90;;;;;;5079480;27;20217;-48
2023/10/23 01:08:26;;;;;;;5.17;3.03;;;7.00;99.90;;;;;;5105840;28;20268;-46
2023/10/23 01:10:55;;;;;;;4.80;3.20;;;6.90;99.90;;;;;;5102461;28;20802;-52
2023/10/23 01:13:22;;;;;;;5.20;3.60;;;6.90;99.90;;;;;;5098867;27;20559;-46
2023/10/23 01:15:50;;;;;;;4.17;3.40;;;6.90;99.90;;;;;;5109848;27;20201;-51
2023/10/23 01:18:17;;;;;;;3.30;2.73;;;6.80;99.90;;;;;;5104905;27;20305;-43
2023/10/23 01:20:44;;;;;;;3.80;3.50;;;6.80;99.90;;;;;;5066908;27;20278;-48
2023/10/23 01:23:13;;;;;;;3.50;3.27;;;6.80;99.90;;;;;;5101956;28;21045;-48
2023/10/23 01:25:41;;;;;;;3.30;3.10;;;6.80;99.90;;;;;;5085712;28;20209;-51
2023/10/23 01:28:08;;;;;;;3.20;2.90;;;6.70;99.90;;;;;;5110971;27;21500;-50
2023/10/23 01:30:36;;;;;;;3.97;3.37;;;6.70;99.90;;;;;;5090714;27;20684;-52
2023/10/23 01:33:03;;;;;;;3.27;3.00;;;6.70;99.90;;;;;;5102818;27;20262;-46
2023/10/23 01:35:30;;;;;;;3.40;3.00;;;6.60;99.90;;;;;;5083278;28;20293;-51
2023/10/23 01:37:56;;;;;;;2.90;2.60;;;6.60;99.90;;;;;;5076308;28;20229;-51
2023/10/23 01:40:24;;;;;;;3.87;3.57;;;6.50;99.90;;;;;;5104422;27;20204;-48
2023/10/23 01:42:52;;;;;;;3.90;3.60;;;6.60;99.90;;;;;;5094525;28;20213;-51
2023/10/23 01:45:19;;;;;;;4.73;3.63;;;6.60;99.90;;;;;;5097905;27;20846;-47
2023/10/23 01:47:46;;;;;;;5.27;3.57;;;6.60;99.90;;;;;;5104985;27;20292;-48
2023/10/23 01:50:13;;;;;;;5.13;3.60;;;6.50;99.90;;;;;;5099847;27;20202;-47
2023/10/23 01:52:41;;;;;;;5.37;3.77;;;6.50;99.90;;;;;;5079657;27;20240;-44
2023/10/23 01:55:08;;;;;;;4.77;3.90;;;6.50;99.90;;;;;;5101723;27;20293;-50
2023/10/23 01:57:35;;;;;;;5.47;5.00;;;6.50;99.90;;;;;;5094610;28;20258;-44
2023/10/23 02:00:05;;;;;;;4.80;4.40;;;6.60;99.90;;;;;;5092617;28;20197;-52
2023/10/23 02:02:42;;;;;;;5.03;4.53;;;6.60;99.90;;;;;;5103196;27;20220;-43
2023/10/23 02:05:10;;;;;;;4.17;3.60;;;6.60;99.90;;;;;;5102006;27;20201;-50
2023/10/23 02:07:37;;;;;;;4.37;4.00;;;6.60;99.90;;;;;;5077379;27;20205;-49
2023/10/23 02:10:04;;;;;;;7.07;4.57;;;6.60;99.90;;;;;;5099298;27;20185;-49
2023/10/23 02:12:32;;;;;;;6.23;4.27;;;6.70;99.90;;;;;;5095823;27;20274;-45
2023/10/23 02:15:00;;;;;;;6.43;4.80;;;6.70;99.90;;;;;;5091930;28;20204;-50
2023/10/23 02:17:29;;;;;;;5.63;5.13;;;6.80;99.90;;;;;;5104004;27;20181;-44
2023/10/23 02:19:55;;;;;;;8.60;5.40;;;6.90;99.90;;;;;;5104830;27;20189;-54
2023/10/23 02:22:22;;;;;;;7.53;5.00;;;7.00;99.90;;;;;;5069499;28;20220;-43
2023/10/23 02:24:49;;;;;;;5.53;4.97;;;7.00;99.90;;;;;;5104983;28;20198;-47
2023/10/23 02:27:16;;;;;;;5.93;5.43;;;7.10;99.90;;;;;;5098558;28;20193;-42
2023/10/23 02:29:43;;;;;;;5.90;5.40;;;7.10;99.90;;;;;;5094633;28;20254;-44
2023/10/23 02:32:10;;;;;;;6.90;5.23;;;7.20;99.90;;;;;;5091579;28;20221;-47
2023/10/23 02:34:38;;;;;;;9.00;5.60;;;7.30;99.90;;;;;;5105636;27;20283;-51
2023/10/23 02:37:05;;;;;;;7.60;5.40;;;7.30;99.90;;;;;;5078177;27;20644;-52
2023/10/23 02:39:32;;;;;;;5.00;4.50;;;7.30;99.90;;;;;;5097482;28;20352;-45
2023/10/23 02:41:59;;;;;;;5.57;4.83;;;7.20;99.90;;;;;;5101050;28;20763;-49
2023/10/23 02:44:26;;;;;;;6.10;4.53;;;7.10;99.90;;;;;;5096307;27;20212;-44
2023/10/23 02:46:53;;;;;;;5.77;5.20;;;7.10;99.90;;;;;;5101533;27;20278;-53
2023/10/23 02:49:20;;;;;;;5.10;4.63;;;6.90;99.90;;;;;;5101212;28;20205;-46
2023/10/23 02:51:49;;;;;;;5.97;5.13;;;6.90;99.90;;;;;;5105510;27;20334;-45
2023/10/23 02:54:16;;;;;;;6.87;4.63;;;6.90;99.90;;;;;;5078899;27;20197;-44
2023/10/23 02:56:42;;;;;;;4.93;4.53;;;6.80;99.90;;;;;;5104962;27;20268;-43
2023/10/23 02:59:09;;;;;;;5.33;4.83;;;6.80;99.90;;;;;;5098162;28;20205;-51
2023/10/23 03:01:37;;;;;;;4.93;4.53;;;6.70;99.90;;;;;;5084076;28;20245;-47
2023/10/23 03:04:04;;;;;;;5.03;4.63;;;6.70;99.90;;;;;;5098944;28;20198;-52
2023/10/23 03:06:31;;;;;;;5.10;4.57;;;6.60;99.90;;;;;;5104598;27;20193;-45
2023/10/23 03:09:00;;;;;;;5.63;5.13;;;6.60;99.90;;;;;;5086928;28;20197;-51
2023/10/23 03:11:27;;;;;;;5.83;5.17;;;6.50;99.90;;;;;;5094976;27;20286;-44
2023/10/23 03:13:54;;;;;;;7.60;5.30;;;6.60;99.90;;;;;;5101872;28;20823;-53
2023/10/23 03:16:21;;;;;;;6.07;5.10;;;6.60;99.90;;;;;;5091861;27;20282;-45
2023/10/23 03:18:47;;;;;;;5.60;4.73;;;6.50;99.90;;;;;;5098728;27;20632;-44
2023/10/23 03:21:14;;;;;;;6.00;5.40;;;6.50;99.90;;;;;;5099049;27;20912;-47
2023/10/23 03:23:41;;;;;;;7.60;5.87;;;6.50;99.90;;;;;;5101724;28;20250;-48
2023/10/23 03:26:10;;;;;;;4.87;4.47;;;6.50;99.90;;;;;;5066777;28;20274;-50
2023/10/23 03:28:37;;;;;;;6.00;4.83;;;6.60;99.90;;;;;;5102878;28;20717;-50
2023/10/23 03:31:04;;;;;;;5.63;5.10;;;6.60;99.90;;;;;;5098842;28;20691;-51
2023/10/23 03:33:32;;;;;;;8.20;4.83;;;6.50;99.90;;;;;;5101598;27;20261;-46
2023/10/23 03:35:59;;;;;;;4.73;4.33;;;6.50;99.90;;;;;;5101312;28;20652;-50
2023/10/23 03:38:25;;;;;;;6.57;5.67;;;6.50;99.90;;;;;;5101642;27;20801;-51
2023/10/23 03:40:56;;;;;;;7.53;5.70;;;6.50;99.90;;;;;;5100065;27;20194;-52
2023/10/23 03:43:26;;;;;;;7.07;5.03;;;6.50;99.90;;;;;;5085247;27;20189;-45
2023/10/23 03:45:53;;;;;;;5.07;4.67;;;6.50;99.90;;;;;;5102250;28;20710;-52
2023/10/23 03:48:20;;;;;;;6.67;4.90;;;6.40;99.90;;;;;;5091949;27;21108;-46
2023/10/23 03:50:47;;;;;;;6.03;5.47;;;6.40;99.90;;;;;;5106328;27;20251;-43
2023/10/23 03:53:13;;;;;;;5.33;4.83;;;6.40;99.90;;;;;;5101691;27;20290;-43
2023/10/23 03:55:41;;;;;;;6.10;5.20;;;6.40;99.90;;;;;;5108458;27;20204;-47
2023/10/23 03:58:07;;;;;;;6.10;5.07;;;6.30;99.90;;;;;;5067179;28;20204;-50
2023/10/23 04:00:36;;;;;;;6.17;4.83;;;6.30;99.90;;;;;;5103321;28;20196;-48
2023/10/23 04:03:03;;;;;;;5.63;4.87;;;6.20;99.90;;;;;;5098968;28;20217;-47
2023/10/23 04:05:31;;;;;;;4.73;4.33;;;6.20;99.90;;;;;;5100527;27;20822;-46
2023/10/23 04:07:58;;;;;;;5.73;5.13;;;6.20;99.90;;;;;;5101360;27;20581;-53
2023/10/23 04:10:24;;;;;;;6.30;5.30;;;6.20;99.90;;;;;;5100403;28;20181;-44
2023/10/23 04:12:52;;;;;;;5.00;4.50;;;6.10;99.90;;;;;;5075567;28;20212;-50
2023/10/23 04:15:19;;;;;;;5.73;5.10;;;6.10;99.90;;;;;;5101060;27;20185;-45
2023/10/23 04:17:47;;;;;;;5.13;4.73;;;6.00;99.90;;;;;;5108149;27;20536;-44
2023/10/23 04:20:14;;;;;;;7.93;4.90;;;6.00;99.90;;;;;;5091524;28;20205;-44
2023/10/23 04:22:41;;;;;;;6.43;5.80;;;6.00;99.90;;;;;;5102738;28;20722;-50
2023/10/23 04:25:08;;;;;;;5.67;5.03;;;6.00;99.90;;;;;;5098508;28;20189;-51
2023/10/23 04:27:35;;;;;;;5.50;5.10;;;6.00;99.90;;;;;;5107827;28;20204;-49
2023/10/23 04:30:04;;;;;;;6.27;5.30;;;6.00;99.90;;;;;;5078375;28;20569;-51
2023/10/23 04:32:30;;;;;;;6.33;5.50;;;6.00;99.90;;;;;;5105909;28;20873;-44
2023/10/23 04:34:59;;;;;;;5.37;4.87;;;6.00;99.90;;;;;;5104101;28;20202;-51
2023/10/23 04:37:26;;;;;;;6.40;5.80;;;6.00;99.90;;;;;;5093769;28;20201;-46
2023/10/23 04:39:53;;;;;;;7.50;6.20;;;6.00;99.90;;;;;;5107446;28;20515;-54
2023/10/23 04:42:20;;;;;;;7.40;6.30;;;6.00;99.90;;;;;;5098553;28;20290;-45
2023/10/23 04:44:48;;;;;;;6.10;5.50;;;6.10;99.90;;;;;;5082153;28;20227;-51
2023/10/23 04:47:15;;;;;;;7.13;6.27;;;6.10;99.90;;;;;;5097757;28;20212;-49
2023/10/23 04:49:42;;;;;;;7.33;6.63;;;6.10;99.90;;;;;;5104768;28;20195;-44
2023/10/23 04:52:10;;;;;;;6.97;5.50;;;6.10;99.90;;;;;;5089065;28;20253;-52
2023/10/23 04:54:37;;;;;;;7.30;5.47;;;6.10;99.90;;;;;;5110054;28;20250;-44
2023/10/23 04:57:04;;;;;;;5.70;5.20;;;6.10;99.90;;;;;;5098772;28;20261;-51
2023/10/23 04:59:34;;;;;;;6.90;6.20;;;6.10;99.90;;;;;;5074924;28;20257;-49
2023/10/23 05:02:00;;;;;;;6.77;6.03;;;6.10;99.90;;;;;;5103308;28;20680;-46
2023/10/23 05:04:30;;;;;;;10.57;6.50;;;6.10;99.90;;;;;;5100881;28;20608;-49
2023/10/23 05:06:57;;;;;;;9.10;6.73;;;6.10;99.90;;;;;;5100601;28;20204;-46
2023/10/23 05:09:25;;;;;;;6.63;5.50;;;6.00;99.90;;;;;;5091021;28;20253;-51
2023/10/23 05:11:52;;;;;;;8.03;6.23;;;6.00;99.90;;;;;;5099903;28;20213;-45
2023/10/23 05:14:19;;;;;;;8.53;6.53;;;6.00;99.90;;;;;;5069152;28;20725;-52
2023/10/23 05:16:46;;;;;;;7.90;5.63;;;6.00;99.90;;;;;;5099056;28;20815;-48
2023/10/23 05:19:13;;;;;;;6.80;6.00;;;6.00;99.90;;;;;;5101756;28;20671;-43
2023/10/23 05:21:39;;;;;;;8.37;6.97;;;6.00;99.90;;;;;;5100238;28;20930;-44
2023/10/23 05:24:08;;;;;;;7.93;6.97;;;6.00;99.90;;;;;;5092685;28;20200;-44
2023/10/23 05:26:36;;;;;;;7.93;7.13;;;6.10;99.90;;;;;;5103126;27;20191;-51
2023/10/23 05:29:03;;;;;;;7.13;6.43;;;6.10;99.90;;;;;;5075691;27;20671;-42
2023/10/23 05:31:30;;;;;;;7.97;7.17;;;6.20;99.90;;;;;;5103618;27;20213;-50
2023/10/23 05:33:57;;;;;;;11.80;7.87;;;6.20;99.90;;;;;;5107942;27;20652;-43
2023/10/23 05:36:24;;;;;;;10.67;7.50;;;6.20;99.90;;;;;;5106366;27;20201;-49
2023/10/23 05:38:50;;;;;;;10.97;7.83;;;6.20;99.90;;;;;;5096056;27;20258;-43
2023/10/23 05:41:17;;;;;;;9.83;7.23;;;6.20;99.90;;;;;;5109400;27;20213;-47
2023/10/23 05:43:45;;;;;;;11.87;7.20;;;6.20;99.90;;;;;;5101806;28;20246;-43
2023/10/23 05:46:12;;;;;;;7.97;6.50;;;6.20;99.90;;;;;;5068241;28;20205;-42
2023/10/23 05:48:39;;;;;;;6.73;6.13;;;6.20;99.90;;;;;;5102732;27;20944;-47
2023/10/23 05:51:06;;;;;;;9.27;6.83;;;6.10;99.90;;;;;;5107147;27;20682;-43
2023/10/23 05:53:34;;;;;;;11.67;7.07;;;6.10;99.90;;;;;;5105493;27;20212;-48
2023/10/23 05:56:02;;;;;;;8.20;6.53;;;6.00;99.90;;;;;;5098016;27;20211;-49
2023/10/23 05:58:29;;;;;;;8.47;6.63;;;5.90;99.90;;;;;;5102079;28;20217;-52
2023/10/23 06:00:57;;;;;;;9.63;6.97;;;5.90;99.90;;;;;;5072847;28;20660;-43
2023/10/23 06:03:24;;;;;;;12.50;7.40;;;5.80;99.90;;;;;;5103414;28;20213;-49
2023/10/23 06:05:53;;;;;;;9.03;7.17;;;5.80;99.90;;;;;;5102880;27;20861;-44
2023/10/23 06:08:19;;;;;;;10.67;7.40;;;5.80;99.90;;;;;;5103062;28;20732;-50
2023/10/23 06:10:47;;;;;;;10.27;7.00;;;5.80;99.90;;;;;;5094287;27;20777;-42
2023/10/23 06:13:13;;;;;;;7.70;6.27;;;5.90;99.90;;;;;;5104637;28;20249;-46
2023/10/23 06:15:40;;;;;;;8.77;5.73;;;5.90;99.90;;;;;;5071121;27;20298;-44
2023/10/23 06:18:08;;;;;;;8.37;6.37;;;5.80;99.90;;;;;;5106976;27;20219;-43
2023/10/23 06:20:35;;;;;;;6.70;5.70;;;5.80;99.90;;;;;;5102743;27;20197;-46
2023/10/23 06:23:03;;;;;;;7.23;6.13;;;5.70;99.90;;;;;;5091103;28;20286;-48
2023/10/23 06:25:32;;;;;;;7.53;6.70;;;5.70;99.90;;;;;;5102091;27;20292;-43
2023/10/23 06:27:59;;;;;;;7.87;6.63;;;5.70;99.90;;;;;;5095353;28;20663;-50
2023/10/23 06:30:26;;;;;;;10.70;7.47;;;5.80;99.90;;;;;;5105706;27;20193;-44
2023/10/23 06:32:53;;;;;;;8.63;7.13;;;5.80;99.90;;;;;;5075919;27;20217;-50
2023/10/23 06:35:21;;;;;;;9.17;6.77;;;5.90;99.90;;;;;;5101519;28;21503;-48
2023/10/23 06:37:48;;;;;;;9.73;6.67;;;5.90;99.90;;;;;;5105610;27;20250;-50
2023/10/23 06:40:15;;;;;;;8.87;7.20;;;6.00;99.90;;;;;;5103544;27;20910;-46
2023/10/23 06:42:42;;;;;;;9.90;7.70;;;5.90;99.90;;;;;;5097014;27;20702;-48
2023/10/23 06:45:09;;;;;;;10.57;8.07;;;6.00;99.90;;;;;;5097927;27;20828;-45
2023/10/23 06:47:37;;;;;;;11.47;8.50;;;6.10;99.90;;;;;;5082910;27;20702;-44
2023/10/23 06:50:05;;;;;;;11.93;8.23;;;6.20;99.90;;;;;;5099337;28;20197;-51
2023/10/23 06:52:33;;;;;;;14.83;9.40;;;6.30;99.90;;;;;;5105656;27;20266;-44
2023/10/23 06:55:00;;;;;;;11.30;8.20;;;6.40;99.90;;;;;;5100781;28;20185;-51
2023/10/23 06:57:27;;;;;;;14.20;9.63;;;6.40;99.90;;;;;;5093465;27;20201;-46
2023/10/23 06:59:55;;;;;;;15.47;10.07;;;6.50;99.90;;;;;;5099157;27;20250;-49
2023/10/23 07:02:22;;;;;;;14.10;9.77;;;6.60;99.90;;;;;;5065671;28;20938;-47
2023/10/23 07:04:49;;;;;;;14.57;10.60;;;6.70;99.90;;;;;;5102556;28;20254;-50
2023/10/23 07:07:16;;;;;;;13.40;10.57;;;6.80;99.90;;;;;;5101156;28;20217;-43
2023/10/23 07:09:45;;;;;;;14.23;10.87;;;6.90;99.90;;;;;;5105145;27;20193;-45
2023/10/23 07:12:12;;;;;;;18.27;10.93;;;7.00;99.90;;;;;;5092568;27;20222;-43
2023/10/23 07:14:39;;;;;;;15.67;11.07;;;7.10;99.90;;;;;;5103730;28;20193;-43
2023/10/23 07:17:06;;;;;;;16.63;10.47;;;7.20;99.90;;;;;;5068228;27;20217;-49
2023/10/23 07:19:33;;;;;;;14.53;9.73;;;7.30;99.90;;;;;;5105505;27;20198;-44
2023/10/23 07:22:00;;;;;;;17.90;11.23;;;7.40;99.90;;;;;;5100452;28;20258;-53
2023/10/23 07:24:26;;;;;;;18.77;10.63;;;7.40;99.90;;;;;;5106999;27;20197;-45
2023/10/23 07:26:55;;;;;;;17.00;10.97;;;7.50;99.90;;;;;;5103344;27;20659;-50
2023/10/23 07:29:21;;;;;;;16.00;11.13;;;7.60;99.90;;;;;;5091770;28;20209;-46
2023/10/23 07:31:48;;;;;;;16.83;11.13;;;7.70;99.90;;;;;;5094583;27;20240;-52
2023/10/23 07:34:16;;;;;;;15.60;11.20;;;7.80;99.90;;;;;;5080961;28;20296;-46
2023/10/23 07:36:43;;;;;;;17.13;10.97;;;7.90;99.90;;;;;;5102360;28;20204;-51
2023/10/23 07:39:10;;;;;;;17.87;11.67;;;8.00;99.90;;;;;;5101326;27;20936;-46
2023/10/23 07:41:37;;;;;;;13.87;10.73;;;8.10;99.90;;;;;;5106900;27;20217;-46
2023/10/23 07:44:06;;;;;;;15.93;11.10;;;8.20;99.90;;;;;;5093736;27;20212;-49
2023/10/23 07:46:33;;;;;;;18.07;10.73;;;8.30;99.90;;;;;;5094529;27;20201;-44
2023/10/23 07:48:59;;;;;;;16.30;10.93;;;8.40;99.90;;;;;;5069158;27;20209;-51
2023/10/23 07:51:26;;;;;;;15.10;10.90;;;8.40;99.90;;;;;;5100606;28;20213;-44
2023/10/23 07:53:53;;;;;;;17.30;11.50;;;8.50;99.90;;;;;;5104646;27;20216;-53
2023/10/23 07:56:20;;;;;;;15.87;11.03;;;8.60;99.90;;;;;;5101004;28;20247;-44
2023/10/23 07:58:47;;;;;;;17.30;11.47;;;8.70;99.90;;;;;;5094285;27;20209;-51
2023/10/23 08:01:15;;;;;;;14.63;10.70;;;8.80;99.90;;;;;;5099396;28;20197;-45
2023/10/23 08:03:42;;;;;;;19.00;11.90;;;8.80;99.90;;;;;;5067822;27;20623;-43
2023/10/23 08:06:10;;;;;;;11.30;9.60;;;8.90;99.90;;;;;;5104951;27;20914;-46
2023/10/23 08:08:38;;;;;;;14.53;10.63;;;9.00;99.90;;;;;;5103616;27;20197;-46
2023/10/23 08:11:06;;;;;;;13.90;9.33;;;9.00;99.90;;;;;;5097248;28;20274;-47
2023/10/23 08:13:33;;;;;;;13.77;9.67;;;9.10;99.90;;;;;;5095268;27;20301;-47
2023/10/23 08:16:00;;;;;;;12.87;8.67;;;9.20;99.90;;;;;;5101089;28;21322;-52
2023/10/23 08:18:29;;;;;;;15.80;9.47;;;9.20;99.90;;;;;;5092966;28;20254;-45
2023/10/23 08:20:55;;;;;;;13.10;8.47;;;9.30;99.90;;;;;;5058865;27;20214;-51
2023/10/23 08:23:22;;;;;;;14.77;8.77;;;9.30;99.90;;;;;;5101869;27;20221;-44
2023/10/23 08:25:49;;;;;;;11.13;8.13;;;9.40;99.90;;;;;;5100078;28;20193;-51
2023/10/23 08:28:16;;;;;;;12.97;8.53;;;9.50;99.90;;;;;;5099821;28;20787;-44
2023/10/23 08:30:43;;;;;;;12.20;8.73;;;9.60;99.90;;;;;;5093442;28;20197;-51
2023/10/23 08:33:09;;;;;;;9.83;8.10;;;9.60;99.90;;;;;;5088751;28;20221;-47
2023/10/23 08:35:38;;;;;;;12.70;7.77;;;9.70;99.90;;;;;;5072878;28;20259;-44
2023/10/23 08:38:04;;;;;;;10.07;6.93;;;9.90;99.90;;;;;;5105173;28;20193;-45
2023/10/23 08:40:31;;;;;;;8.90;6.70;;;9.90;99.90;;;;;;5102277;28;20217;-47
2023/10/23 08:42:58;;;;;;;10.20;7.00;;;10.00;99.90;;;;;;5098235;28;21735;-52
2023/10/23 08:45:26;;;;;;;7.87;6.37;;;10.10;99.90;;;;;;5093156;28;20209;-44
2023/10/23 08:47:52;;;;;;;9.00;5.83;;;10.10;99.90;;;;;;5095602;28;20193;-54
2023/10/23 08:50:20;;;;;;;8.87;6.30;;;10.10;99.90;;;;;;5066015;28;20278;-44
2023/10/23 08:52:53;;;;;;;8.33;6.33;;;10.20;99.90;;;;;;5103162;28;20229;-53
2023/10/23 08:55:21;;;;;;;7.87;5.80;;;10.30;99.90;;;;;;5100992;28;20201;-44
2023/10/23 08:57:52;;;;;;;6.57;5.83;;;10.40;99.90;;;;;;5101320;28;20193;-51
2023/10/23 09:00:18;;;;;;;8.73;6.03;;;10.50;99.90;;;;;;5100351;28;20189;-46
2023/10/23 09:02:45;;;;;;;7.37;5.97;;;10.60;99.90;;;;;;5095792;27;20213;-52
2023/10/23 09:05:12;;;;;;;5.93;5.33;;;10.60;99.90;;;;;;5096900;27;20193;-45
2023/10/23 09:07:39;;;;;;;9.00;5.73;;;10.60;99.90;;;;;;5080263;27;20216;-50
2023/10/23 09:10:08;;;;;;;6.63;5.70;;;10.70;99.90;;;;;;5102355;27;20875;-48
2023/10/23 09:12:37;;;;;;;5.60;5.00;;;10.70;99.90;;;;;;5108149;27;20217;-44
2023/10/23 09:15:17;;;;;;;11.57;5.30;;;10.70;99.90;;;;;;5101040;28;20181;-45
2023/10/23 09:17:44;;;;;;;7.60;4.80;;;10.80;99.90;;;;;;5099346;27;20189;-54
2023/10/23 09:20:22;;;;;;;5.07;4.57;;;10.80;99.90;;;;;;5103819;27;20262;-45
2023/10/23 09:22:49;;;;;;;4.60;4.10;;;10.90;99.90;;;;;;5067752;28;20221;-46
2023/10/23 09:25:18;;;;;;;5.77;4.23;;;11.00;99.90;;;;;;5105127;28;20659;-51
2023/10/23 09:27:45;;;;;;;4.93;3.83;;;11.00;99.90;;;;;;5097475;27;20353;-47
2023/10/23 09:30:13;;;;;;;7.83;4.47;;;11.00;99.90;;;;;;5113223;27;20189;-46
2023/10/23 09:32:40;;;;;;;6.47;3.27;;;11.10;99.90;;;;;;5092543;28;21356;-45
2023/10/23 09:35:09;;;;;;;4.77;3.83;;;11.20;99.90;;;;;;5096869;28;20704;-44
2023/10/23 09:37:36;;;;;;;4.67;3.17;;;11.30;99.90;;;;;;5070461;28;25550;-46
2023/10/23 09:40:08;;;;;;;5.97;3.60;;;11.60;99.90;;;;;;5100242;27;20258;-49
2023/10/23 09:42:37;;;;;;;5.03;2.90;;;11.70;99.90;;;;;;5098647;28;20922;-47
2023/10/23 09:45:05;;;;;;;4.67;2.53;;;11.90;99.90;;;;;;5107917;27;20193;-49
2023/10/23 09:47:32;;;;;;;6.20;2.37;;;11.90;99.90;;;;;;5096873;27;20254;-52
2023/10/23 09:50:01;;;;;;;3.13;2.33;;;11.90;99.90;;;;;;5093412;27;20212;-44
2023/10/23 09:52:28;;;;;;;2.23;2.03;;;11.90;99.90;;;;;;5081580;27;20217;-52
2023/10/23 09:54:59;;;;;;;2.33;1.80;;;11.90;99.90;;;;;;5097346;28;20209;-44
2023/10/23 09:57:34;;;;;;;2.83;2.47;;;11.90;99.90;;;;;;5100215;28;20446;-51
2023/10/23 10:00:12;;;;;;;2.23;1.97;;;12.00;99.90;;;;;;5104775;28;20217;-46
2023/10/23 10:02:40;;;;;;;2.27;2.00;;;12.00;99.90;;;;;;5102579;27;20269;-47
2023/10/23 10:05:10;;;;;;;4.93;2.33;;;12.00;99.90;;;;;;5096074;28;20203;-43
2023/10/23 10:07:47;;;;;;;2.73;2.13;;;12.10;99.90;;;;;;5092164;27;20301;-45
2023/10/23 10:10:15;;;;;;;2.43;2.23;;;12.10;99.90;;;;;;5074368;28;20240;-44
2023/10/23 10:12:43;;;;;;;6.07;2.03;;;12.10;99.90;;;;;;5101651;27;20205;-44
2023/10/23 10:15:11;;;;;;;1.83;1.70;;;12.10;99.90;;;;;;5107242;27;20698;-42
2023/10/23 10:17:39;;;;;;;3.60;1.73;;;12.20;99.90;;;;;;5102146;27;20189;-47
2023/10/23 10:20:08;;;;;;;2.60;1.77;;;12.30;99.90;;;;;;5101565;27;20666;-46
2023/10/23 10:22:36;;;;;;;2.20;1.43;;;12.30;99.90;;;;;;5092839;27;20225;-43
2023/10/23 10:25:05;;;;;;;2.87;2.10;;;12.30;99.90;;;;;;5073598;28;20193;-43
2023/10/23 10:27:32;;;;;;;3.47;1.93;;;12.40;99.90;;;;;;5102166;27;20633;-49
2023/10/23 10:30:01;;;;;;;2.67;1.47;;;12.40;99.90;;;;;;5104628;28;20198;-42
2023/10/23 10:32:29;;;;;;;4.73;1.77;;;12.50;99.90;;;;;;5101931;27;20209;-49
2023/10/23 10:35:00;;;;;;;2.67;1.93;;;12.50;99.90;;;;;;5095165;28;20687;-45
2023/10/23 10:37:29;;;;;;;2.20;1.23;;;12.60;99.90;;;;;;5097089;27;20636;-51
2023/10/23 10:40:07;;;;;;;2.43;1.50;;;12.60;99.90;;;;;;5071843;28;20339;-43
2023/10/23 10:42:39;;;;;;;3.93;1.60;;;12.60;99.90;;;;;;5105848;27;20287;-47
2023/10/23 10:45:16;;;;;;;2.10;1.60;;;12.60;99.90;;;;;;5104976;27;20310;-47
2023/10/23 10:47:48;;;;;;;3.43;1.30;;;12.70;99.90;;;;;;5099969;27;20280;-46
2023/10/23 10:50:32;;;;;;;2.23;1.27;;;12.70;99.90;;;;;;5095389;28;20213;-48
2023/10/23 10:53:02;;;;;;;3.27;1.17;;;12.80;99.90;;;;;;5100085;27;20235;-48
2023/10/23 10:55:29;;;;;;;3.53;1.37;;;12.90;99.90;;;;;;5074391;27;20217;-51
2023/10/23 10:57:58;;;;;;;1.37;1.20;;;12.90;99.90;;;;;;5101539;27;20189;-44
2023/10/23 11:00:24;;;;;;;2.03;1.30;;;13.00;99.90;;;;;;5101985;28;20205;-49
2023/10/23 11:02:53;;;;;;;2.60;1.10;;;13.10;99.90;;;;;;5102840;27;22316;-43
2023/10/23 11:05:20;;;;;;;3.00;1.17;;;13.10;99.90;;;;;;5080878;28;20202;-44
2023/10/23 11:07:50;;;;;;;2.90;1.20;;;13.10;99.90;;;;;;5105129;27;20663;-49
2023/10/23 11:10:17;;;;;;;3.03;1.20;;;13.10;99.90;;;;;;5075086;27;20255;-43
2023/10/23 11:12:43;;;;;;;3.43;1.20;;;13.10;99.90;;;;;;5103969;27;20309;-49
2023/10/23 11:15:11;;;;;;;4.13;1.00;;;13.20;99.90;;;;;;5100215;28;21821;-44
2023/10/23 11:17:38;;;;;;;1.30;1.20;;;13.20;99.90;;;;;;5104616;27;20194;-46
2023/10/23 11:20:11;;;;;;;5.83;1.00;;;13.20;99.90;;;;;;5090378;28;21545;-44
2023/10/23 11:22:41;;;;;;;2.93;1.00;;;13.20;99.90;;;;;;5096205;27;20217;-43
2023/10/23 11:25:09;;;;;;;4.43;1.10;;;13.10;99.90;;;;;;5100116;27;20932;-43
2023/10/23 11:27:36;;;;;;;1.90;0.93;;;13.10;99.90;;;;;;5074358;27;20720;-45
2023/10/23 11:30:04;;;;;;;4.93;1.37;;;13.10;99.90;;;;;;5099434;28;20281;-43
2023/10/23 11:32:31;;;;;;;0.70;0.70;;;13.10;99.90;;;;;;5103449;28;20213;-43
2023/10/23 11:35:03;;;;;;;3.33;0.80;;;13.10;99.90;;;;;;5092974;28;20219;-49
2023/10/23 11:37:35;;;;;;;2.60;0.70;;;13.00;99.90;;;;;;5091251;27;20656;-47
2023/10/23 11:40:06;;;;;;;2.93;0.97;;;13.00;99.90;;;;;;5099775;27;20849;-49
2023/10/23 11:42:42;;;;;;;2.20;1.23;;;13.10;99.90;;;;;;5068999;28;20227;-48
2023/10/23 11:45:11;;;;;;;1.20;1.00;;;13.20;99.90;;;;;;5100356;27;20276;-45
2023/10/23 11:47:38;;;;;;;4.30;1.10;;;13.20;99.90;;;;;;5103972;27;20678;-42
2023/10/23 11:50:10;;;;;;;2.50;1.10;;;13.20;99.90;;;;;;5099635;27;20923;-44
2023/10/23 11:52:42;;;;;;;1.63;0.90;;;13.30;99.90;;;;;;5097081;27;20744;-45
2023/10/23 11:55:11;;;;;;;0.77;0.70;;;13.30;99.90;;;;;;5094914;27;20894;-43
2023/10/23 11:57:41;;;;;;;3.50;0.90;;;13.30;99.90;;;;;;5069606;27;20210;-43
2023/10/23 12:00:12;;;;;;;1.67;1.13;;;13.30;99.90;;;;;;5105766;27;20216;-43
2023/10/23 12:02:40;;;;;;;1.70;1.23;;;13.30;99.90;;;;;;5102525;28;20213;-43
2023/10/23 12:05:10;;;;;;;2.60;1.10;;;13.30;99.90;;;;;;5097353;28;20177;-45
2023/10/23 12:07:40;;;;;;;2.17;0.90;;;13.40;99.90;;;;;;5095211;28;20208;-43
2023/10/23 12:10:08;;;;;;;1.20;1.00;;;13.50;99.90;;;;;;5089720;28;20194;-47
2023/10/23 12:12:36;;;;;;;3.13;1.23;;;13.50;99.90;;;;;;5067343;27;20218;-43
2023/10/23 12:15:04;;;;;;;1.57;1.30;;;13.50;99.90;;;;;;5100900;27;20216;-45
2023/10/23 12:17:31;;;;;;;2.93;1.20;;;13.60;99.90;;;;;;5103360;27;20189;-46
2023/10/23 12:19:58;;;;;;;1.83;1.03;;;13.60;99.90;;;;;;5100636;27;20249;-49
2023/10/23 12:22:25;;;;;;;4.67;1.47;;;13.60;99.90;;;;;;5093449;28;20228;-47
2023/10/23 12:24:53;;;;;;;3.10;1.00;;;13.60;99.90;;;;;;5083950;27;20744;-50
2023/10/23 12:27:20;;;;;;;1.40;1.10;;;13.70;99.90;;;;;;5076172;27;21057;-43
2023/10/23 12:29:47;;;;;;;2.10;1.40;;;13.80;99.90;;;;;;5088093;28;20283;-43
2023/10/23 12:32:14;;;;;;;4.93;1.30;;;13.90;99.90;;;;;;5111366;28;20213;-44
2023/10/23 12:34:41;;;;;;;1.50;1.37;;;13.80;99.90;;;;;;5097483;28;20795;-43
2023/10/23 12:37:08;;;;;;;3.83;1.20;;;13.80;99.90;;;;;;5109596;27;20272;-45
2023/10/23 12:39:35;;;;;;;3.50;1.20;;;13.90;99.90;;;;;;5087958;27;20189;-53
2023/10/23 12:42:03;;;;;;;4.73;1.70;;;13.90;99.90;;;;;;5107615;27;20575;-47
2023/10/23 12:44:30;;;;;;;3.73;1.43;;;13.90;99.90;;;;;;5074980;27;20233;-50
2023/10/23 12:46:57;;;;;;;3.23;1.30;;;14.00;99.90;;;;;;5108306;27;20193;-44
2023/10/23 12:49:25;;;;;;;3.07;1.57;;;14.00;99.90;;;;;;5108018;27;20205;-50
2023/10/23 12:51:52;;;;;;;2.77;1.30;;;14.00;99.90;;;;;;5107713;27;20296;-44
2023/10/23 12:54:18;;;;;;;1.90;1.40;;;14.00;99.90;;;;;;5104270;27;20252;-52